Time;durP1;ratioP1;P1;durP2;ratioP2;P2;SDS_P1;SDS_P2;PMS_P1;PMS_P2;Temp;Humidity;BMP_temperature;BMP_pressure;BME280_temperature;BME280_humidity;BME280_pressure;Samples;Min_cycle;Max_cycle;Signal;HPM_P1;HPM_P2
2023/07/29 00:01:45;;;;;;;0.80;0.70;;;19.40;99.90;;;;;;5031168;28;20097;-40
2023/07/29 00:04:11;;;;;;;3.20;0.80;;;19.40;99.90;;;;;;5031239;28;20113;-42
2023/07/29 00:06:37;;;;;;;0.75;0.60;;;19.40;99.90;;;;;;5031176;28;20093;-42
2023/07/29 00:09:03;;;;;;;1.42;0.70;;;19.40;99.90;;;;;;5031259;28;20113;-41
2023/07/29 00:11:28;;;;;;;1.05;0.80;;;19.40;99.90;;;;;;5031080;28;20033;-43
2023/07/29 00:13:54;;;;;;;1.42;0.77;;;19.50;99.90;;;;;;5031062;28;20104;-41
2023/07/29 00:16:23;;;;;;;0.88;0.70;;;19.40;99.90;;;;;;5031048;28;20547;-41
2023/07/29 00:18:49;;;;;;;1.48;0.63;;;19.40;99.90;;;;;;5030551;28;20476;-42
2023/07/29 00:21:15;;;;;;;1.27;0.80;;;19.40;99.90;;;;;;5030922;28;20444;-42
2023/07/29 00:23:40;;;;;;;1.35;0.70;;;19.40;99.90;;;;;;5030784;28;20025;-43
2023/07/29 00:26:06;;;;;;;1.10;0.70;;;19.50;99.90;;;;;;5030990;28;20511;-40
2023/07/29 00:28:32;;;;;;;1.30;0.60;;;19.40;99.90;;;;;;5030792;28;20072;-39
2023/07/29 00:30:57;;;;;;;1.02;0.75;;;19.40;99.90;;;;;;5030728;28;20044;-39
2023/07/29 00:33:23;;;;;;;1.30;0.80;;;19.40;99.90;;;;;;5030877;28;20025;-41
2023/07/29 00:35:49;;;;;;;0.80;0.60;;;19.40;99.90;;;;;;5031330;28;20025;-42
2023/07/29 00:38:14;;;;;;;1.85;0.73;;;19.40;99.90;;;;;;5030649;28;20504;-41
2023/07/29 00:40:40;;;;;;;1.08;0.70;;;19.40;99.90;;;;;;5030777;28;20030;-41
2023/07/29 00:43:06;;;;;;;2.40;0.88;;;19.40;99.90;;;;;;5030750;28;20032;-42
2023/07/29 00:45:32;;;;;;;1.55;1.00;;;19.40;99.90;;;;;;5030775;28;20022;-41
2023/07/29 00:47:59;;;;;;;2.83;0.80;;;19.40;99.90;;;;;;5030763;28;20053;-42
2023/07/29 00:50:27;;;;;;;1.00;0.70;;;19.40;99.90;;;;;;5030508;28;20033;-41
2023/07/29 00:52:54;;;;;;;1.60;0.60;;;19.40;99.90;;;;;;5030498;28;20022;-41
2023/07/29 00:55:20;;;;;;;0.63;0.50;;;19.40;99.90;;;;;;5030643;28;20017;-42
2023/07/29 00:57:48;;;;;;;2.20;0.85;;;19.40;99.90;;;;;;5030597;28;20400;-43
2023/07/29 01:00:15;;;;;;;1.42;0.65;;;19.40;99.90;;;;;;5030373;28;20031;-41
2023/07/29 01:02:42;;;;;;;1.05;0.80;;;19.40;99.90;;;;;;5030647;28;20022;-41
2023/07/29 01:05:08;;;;;;;0.88;0.63;;;19.40;99.90;;;;;;5030536;28;20494;-42
2023/07/29 01:07:46;;;;;;;0.98;0.63;;;19.40;99.90;;;;;;5030394;28;20036;-42
2023/07/29 01:10:41;;;;;;;1.20;0.70;;;19.40;99.90;;;;;;5033545;28;20029;-41
2023/07/29 01:13:35;;;;;;;0.80;0.70;;;19.40;99.90;;;;;;5034089;28;20033;-44
2023/07/29 01:16:14;;;;;;;1.30;0.80;;;19.40;99.90;;;;;;5034039;28;20021;-42
2023/07/29 01:18:41;;;;;;;0.90;0.68;;;19.40;99.90;;;;;;5033750;28;20025;-41
2023/07/29 01:21:09;;;;;;;0.95;0.60;;;19.40;99.90;;;;;;5034543;28;20362;-45
2023/07/29 01:23:35;;;;;;;0.70;0.60;;;19.40;99.90;;;;;;5033858;28;20033;-43
2023/07/29 01:26:02;;;;;;;2.15;0.60;;;19.40;99.90;;;;;;5033894;28;20017;-42
2023/07/29 01:28:28;;;;;;;1.65;0.70;;;19.40;99.90;;;;;;5033565;28;20037;-41
2023/07/29 01:31:06;;;;;;;1.60;0.73;;;19.40;99.90;;;;;;5015735;28;20033;-40
2023/07/29 01:33:42;;;;;;;1.38;0.60;;;19.40;99.90;;;;;;5033770;28;20044;-45
2023/07/29 01:36:15;;;;;;;1.38;0.80;;;19.40;99.90;;;;;;5033647;28;20072;-41
2023/07/29 01:38:43;;;;;;;1.20;0.60;;;19.40;99.90;;;;;;5033327;28;20034;-42
2023/07/29 01:41:09;;;;;;;1.20;0.60;;;19.40;99.90;;;;;;5033389;28;20104;-41
2023/07/29 01:43:42;;;;;;;1.48;0.73;;;19.40;99.90;;;;;;5033490;28;20485;-41
2023/07/29 01:46:10;;;;;;;0.60;0.50;;;19.40;99.90;;;;;;5033644;28;20163;-41
2023/07/29 01:48:36;;;;;;;0.75;0.70;;;19.40;99.90;;;;;;5033339;28;20426;-41
2023/07/29 01:51:01;;;;;;;2.35;0.73;;;19.40;99.90;;;;;;5033185;28;20064;-44
2023/07/29 01:53:27;;;;;;;1.65;0.70;;;19.40;99.90;;;;;;5033197;28;20025;-43
2023/07/29 01:55:52;;;;;;;1.10;0.70;;;19.40;99.90;;;;;;5033244;28;20432;-42
2023/07/29 01:58:18;;;;;;;1.00;0.50;;;19.40;99.90;;;;;;5033084;28;20026;-40
2023/07/29 02:00:44;;;;;;;3.15;0.60;;;19.40;99.90;;;;;;5033151;28;20030;-43
2023/07/29 02:03:09;;;;;;;1.50;0.80;;;19.40;99.90;;;;;;5033084;28;20454;-41
2023/07/29 02:05:35;;;;;;;1.40;0.60;;;19.40;99.90;;;;;;5033046;28;20022;-41
2023/07/29 02:08:00;;;;;;;1.15;0.70;;;19.40;99.90;;;;;;5032818;28;20017;-41
2023/07/29 02:10:26;;;;;;;0.95;0.70;;;19.40;99.90;;;;;;5032823;28;20013;-39
2023/07/29 02:12:52;;;;;;;0.85;0.60;;;19.40;99.90;;;;;;5032871;28;20021;-43
2023/07/29 02:15:17;;;;;;;0.60;0.60;;;19.40;99.90;;;;;;5015177;28;20037;-40
2023/07/29 02:17:43;;;;;;;0.80;0.60;;;19.40;99.90;;;;;;5032683;28;20022;-42
2023/07/29 02:20:10;;;;;;;1.33;0.80;;;19.40;99.90;;;;;;5031406;28;20028;-39
2023/07/29 02:22:36;;;;;;;1.70;0.50;;;19.40;99.90;;;;;;5032672;28;20036;-42
2023/07/29 02:25:02;;;;;;;0.77;0.60;;;19.40;99.90;;;;;;5032792;28;20473;-42
2023/07/29 02:27:28;;;;;;;0.95;0.65;;;19.40;99.90;;;;;;5032678;28;20025;-41
2023/07/29 02:29:54;;;;;;;0.82;0.65;;;19.40;99.90;;;;;;5032376;28;20018;-43
2023/07/29 02:32:20;;;;;;;1.30;0.80;;;19.40;99.90;;;;;;5032653;28;20386;-41
2023/07/29 02:34:46;;;;;;;1.77;0.80;;;19.40;99.90;;;;;;5032731;28;20345;-45
2023/07/29 02:37:11;;;;;;;2.17;0.70;;;19.40;99.90;;;;;;5032422;28;20073;-41
2023/07/29 02:39:37;;;;;;;1.73;0.80;;;19.40;99.90;;;;;;5032398;28;20036;-40
2023/07/29 02:42:03;;;;;;;0.70;0.55;;;19.30;99.90;;;;;;5032500;28;20520;-39
2023/07/29 02:44:29;;;;;;;1.30;0.80;;;19.40;99.90;;;;;;5032380;28;20029;-40
2023/07/29 02:46:57;;;;;;;1.55;0.60;;;19.40;99.90;;;;;;5032348;28;20393;-42
2023/07/29 02:49:23;;;;;;;0.75;0.60;;;19.40;99.90;;;;;;5014205;28;20120;-41
2023/07/29 02:51:49;;;;;;;1.38;0.70;;;19.40;99.90;;;;;;5032040;28;20104;-40
2023/07/29 02:54:14;;;;;;;0.60;0.50;;;19.40;99.90;;;;;;5032186;28;20037;-40
2023/07/29 02:56:40;;;;;;;1.38;0.80;;;19.30;99.90;;;;;;5032133;28;20021;-39
2023/07/29 02:59:06;;;;;;;2.88;1.13;;;19.40;99.90;;;;;;5031866;28;20452;-39
2023/07/29 03:01:31;;;;;;;0.90;0.70;;;19.30;99.90;;;;;;5032063;28;20397;-41
2023/07/29 03:03:57;;;;;;;1.77;0.88;;;19.40;99.90;;;;;;5031999;28;20440;-40
2023/07/29 03:06:23;;;;;;;1.13;0.60;;;19.30;99.90;;;;;;5031870;28;20027;-44
2023/07/29 03:08:49;;;;;;;3.63;0.77;;;19.30;99.90;;;;;;5031636;28;20473;-43
2023/07/29 03:11:15;;;;;;;0.90;0.70;;;19.40;99.90;;;;;;5031797;28;20037;-42
2023/07/29 03:13:41;;;;;;;1.40;0.88;;;19.40;99.90;;;;;;5031829;28;20105;-39
2023/07/29 03:16:08;;;;;;;0.90;0.70;;;19.30;99.90;;;;;;5031764;28;20138;-40
2023/07/29 03:18:34;;;;;;;0.82;0.70;;;19.30;99.90;;;;;;5031516;28;20033;-42
2023/07/29 03:21:00;;;;;;;5.55;0.90;;;19.30;99.90;;;;;;5031439;28;20383;-41
2023/07/29 03:23:26;;;;;;;0.98;0.80;;;19.40;99.90;;;;;;5031667;28;20702;-40
2023/07/29 03:25:56;;;;;;;0.90;0.70;;;19.30;99.90;;;;;;5031673;28;20029;-41
2023/07/29 03:28:32;;;;;;;2.45;0.68;;;19.30;99.90;;;;;;5031676;28;20032;-41
2023/07/29 03:30:58;;;;;;;1.13;0.82;;;19.30;99.90;;;;;;5031228;28;20067;-42
2023/07/29 03:33:25;;;;;;;0.80;0.70;;;19.40;99.90;;;;;;5031311;28;20111;-42
2023/07/29 03:35:54;;;;;;;0.95;0.80;;;19.40;99.90;;;;;;5031479;28;20033;-42
2023/07/29 03:38:20;;;;;;;1.10;0.70;;;19.30;99.90;;;;;;5031349;28;20045;-43
2023/07/29 03:40:46;;;;;;;0.90;0.70;;;19.30;99.90;;;;;;5031334;28;20025;-43
2023/07/29 03:43:11;;;;;;;1.13;0.70;;;19.30;99.90;;;;;;5031500;28;20022;-40
2023/07/29 03:45:38;;;;;;;1.27;0.70;;;19.30;99.90;;;;;;5031886;28;20511;-42
2023/07/29 03:48:04;;;;;;;1.20;0.80;;;19.30;99.90;;;;;;5031139;28;20100;-41
2023/07/29 03:50:30;;;;;;;1.13;0.60;;;19.40;99.90;;;;;;5031065;28;20017;-41
2023/07/29 03:52:56;;;;;;;0.77;0.60;;;19.40;99.90;;;;;;5031279;28;20021;-42
2023/07/29 03:55:22;;;;;;;1.17;0.73;;;19.30;99.90;;;;;;5031240;28;20109;-40
2023/07/29 03:57:48;;;;;;;1.15;0.80;;;19.30;99.90;;;;;;5031110;28;20021;-43
2023/07/29 04:00:13;;;;;;;3.63;0.68;;;19.30;99.90;;;;;;5030836;28;20537;-41
2023/07/29 04:02:40;;;;;;;1.45;0.82;;;19.30;99.90;;;;;;5031104;28;20452;-42
2023/07/29 04:05:08;;;;;;;1.00;0.82;;;19.30;99.90;;;;;;5031181;28;20548;-39
2023/07/29 04:07:36;;;;;;;3.45;0.80;;;19.30;99.90;;;;;;5031383;28;20092;-41
2023/07/29 04:10:03;;;;;;;1.98;0.73;;;19.30;99.90;;;;;;5030865;28;20025;-40
2023/07/29 04:12:28;;;;;;;1.05;0.80;;;19.30;99.90;;;;;;5030941;28;20053;-42
2023/07/29 04:14:54;;;;;;;1.70;0.77;;;19.40;99.90;;;;;;5030931;28;20033;-43
2023/07/29 04:17:19;;;;;;;1.00;0.75;;;19.30;99.90;;;;;;5030986;28;20076;-41
2023/07/29 04:19:45;;;;;;;3.63;0.85;;;19.30;99.90;;;;;;5030537;28;20033;-42
2023/07/29 04:22:11;;;;;;;1.33;0.70;;;19.30;99.90;;;;;;5030998;28;20018;-41
2023/07/29 04:24:37;;;;;;;1.77;0.75;;;19.30;99.90;;;;;;5030958;28;20021;-42
2023/07/29 04:27:04;;;;;;;2.10;0.77;;;19.30;99.90;;;;;;5031032;28;20080;-42
2023/07/29 04:29:31;;;;;;;0.73;0.60;;;19.30;99.90;;;;;;5012812;28;20057;-41
2023/07/29 04:31:57;;;;;;;1.88;0.80;;;19.30;99.90;;;;;;5030828;28;20029;-41
2023/07/29 04:34:22;;;;;;;1.38;1.00;;;19.30;99.90;;;;;;5030795;28;20036;-40
2023/07/29 04:36:48;;;;;;;1.35;0.65;;;19.30;99.90;;;;;;5030830;28;20037;-42
2023/07/29 04:39:14;;;;;;;1.00;0.80;;;19.30;99.90;;;;;;5030532;28;20029;-40
2023/07/29 04:41:40;;;;;;;1.55;0.82;;;19.30;99.90;;;;;;5030871;28;20033;-41
2023/07/29 04:44:06;;;;;;;1.75;0.88;;;19.30;99.90;;;;;;5032287;28;20025;-41
2023/07/29 04:46:32;;;;;;;1.95;0.68;;;19.30;99.90;;;;;;5034635;28;20041;-40
2023/07/29 04:48:57;;;;;;;1.75;0.77;;;19.30;99.90;;;;;;5034234;28;20068;-41
2023/07/29 04:51:23;;;;;;;1.88;0.80;;;19.30;99.90;;;;;;5034506;28;20064;-44
2023/07/29 04:53:49;;;;;;;1.42;0.95;;;19.30;99.90;;;;;;5034518;28;20055;-43
2023/07/29 04:56:15;;;;;;;0.93;0.70;;;19.30;99.90;;;;;;5034426;28;20033;-42
2023/07/29 04:58:40;;;;;;;1.77;0.80;;;19.30;99.90;;;;;;5034185;28;20030;-42
2023/07/29 05:01:06;;;;;;;1.27;0.80;;;19.30;99.90;;;;;;5034174;28;20048;-41
2023/07/29 05:03:32;;;;;;;2.47;0.90;;;19.30;99.90;;;;;;5034265;28;20029;-42
2023/07/29 05:05:59;;;;;;;2.03;0.90;;;19.30;99.90;;;;;;5034270;28;20032;-44
2023/07/29 05:08:25;;;;;;;2.80;0.73;;;19.30;99.90;;;;;;5034088;28;20034;-40
2023/07/29 05:10:52;;;;;;;1.10;0.73;;;19.30;99.90;;;;;;5033974;28;20033;-40
2023/07/29 05:13:18;;;;;;;1.50;0.90;;;19.30;99.90;;;;;;5034011;28;20026;-42
2023/07/29 05:15:44;;;;;;;0.90;0.70;;;19.30;99.90;;;;;;5034112;28;20107;-39
2023/07/29 05:18:10;;;;;;;1.13;0.80;;;19.30;99.90;;;;;;5033745;28;20076;-40
2023/07/29 05:20:35;;;;;;;0.80;0.70;;;19.30;99.90;;;;;;5033759;28;20036;-40
2023/07/29 05:23:01;;;;;;;1.48;0.75;;;19.30;99.90;;;;;;5033901;28;20392;-42
2023/07/29 05:25:27;;;;;;;1.00;0.70;;;19.30;99.90;;;;;;5033925;28;20017;-42
2023/07/29 05:27:53;;;;;;;1.17;0.70;;;19.30;99.90;;;;;;5033618;28;20017;-40
2023/07/29 05:30:18;;;;;;;1.65;0.88;;;19.30;99.90;;;;;;5033593;28;20381;-41
2023/07/29 05:32:44;;;;;;;0.68;0.63;;;19.30;99.90;;;;;;5033679;28;20084;-40
2023/07/29 05:35:10;;;;;;;0.82;0.73;;;19.30;99.90;;;;;;5033694;28;20025;-40
2023/07/29 05:37:39;;;;;;;0.63;0.60;;;19.30;99.90;;;;;;5033666;28;20033;-42
2023/07/29 05:40:06;;;;;;;0.95;0.65;;;19.30;99.90;;;;;;5033340;28;20552;-40
2023/07/29 05:42:32;;;;;;;2.35;0.90;;;19.30;99.90;;;;;;5033464;28;20435;-40
2023/07/29 05:44:58;;;;;;;1.73;0.75;;;19.30;99.90;;;;;;5033446;28;20469;-41
2023/07/29 05:47:24;;;;;;;0.95;0.70;;;19.30;99.90;;;;;;5033412;28;20017;-43
2023/07/29 05:49:49;;;;;;;1.25;0.88;;;19.30;99.90;;;;;;5033393;28;20029;-39
2023/07/29 05:52:15;;;;;;;3.33;0.80;;;19.30;99.90;;;;;;5033392;28;20030;-41
2023/07/29 05:54:42;;;;;;;0.82;0.70;;;19.30;99.90;;;;;;5033084;28;20029;-42
2023/07/29 05:57:11;;;;;;;1.00;0.68;;;19.30;99.90;;;;;;5033281;28;20033;-42
2023/07/29 05:59:37;;;;;;;1.67;0.80;;;19.30;99.90;;;;;;5033318;28;20171;-42
2023/07/29 06:02:03;;;;;;;1.30;0.90;;;19.30;99.90;;;;;;5033202;28;20518;-43
2023/07/29 06:04:28;;;;;;;1.38;0.80;;;19.30;99.90;;;;;;5033202;28;20022;-43
2023/07/29 06:06:55;;;;;;;2.05;0.80;;;19.30;99.90;;;;;;5033253;28;20017;-42
2023/07/29 06:09:25;;;;;;;0.50;0.40;;;19.30;99.90;;;;;;5032827;28;20182;-42
2023/07/29 06:11:51;;;;;;;0.90;0.70;;;19.30;99.90;;;;;;5033046;28;20021;-40
2023/07/29 06:14:16;;;;;;;0.77;0.60;;;19.30;99.90;;;;;;5032980;28;20025;-40
2023/07/29 06:16:42;;;;;;;1.38;0.60;;;19.30;99.90;;;;;;5032927;28;20030;-40
2023/07/29 06:19:08;;;;;;;1.65;0.80;;;19.30;99.90;;;;;;5032548;28;20141;-40
2023/07/29 06:21:34;;;;;;;0.75;0.60;;;19.30;99.90;;;;;;5032977;28;20100;-41
2023/07/29 06:24:00;;;;;;;1.30;0.70;;;19.30;99.90;;;;;;5032875;28;20028;-43
2023/07/29 06:26:26;;;;;;;1.10;0.80;;;19.30;99.90;;;;;;5032646;28;20026;-41
2023/07/29 06:28:51;;;;;;;1.48;0.70;;;19.30;99.90;;;;;;5032451;28;20030;-41
2023/07/29 06:31:17;;;;;;;0.93;0.80;;;19.30;99.90;;;;;;5032517;28;20400;-41
2023/07/29 06:33:43;;;;;;;1.00;0.60;;;19.30;99.90;;;;;;5032589;28;20072;-40
2023/07/29 06:36:08;;;;;;;1.27;0.80;;;19.30;99.90;;;;;;5014815;28;20030;-41
2023/07/29 06:38:34;;;;;;;1.25;0.70;;;19.30;99.90;;;;;;5032363;28;20040;-41
2023/07/29 06:40:59;;;;;;;1.05;0.80;;;19.30;99.90;;;;;;5032142;28;20029;-40
2023/07/29 06:43:25;;;;;;;2.20;0.77;;;19.30;99.90;;;;;;5032434;28;20055;-42
2023/07/29 06:45:51;;;;;;;0.85;0.60;;;19.30;99.90;;;;;;5032324;28;20028;-43
2023/07/29 06:48:18;;;;;;;1.17;0.60;;;19.30;99.90;;;;;;5032271;28;20014;-42
2023/07/29 06:50:44;;;;;;;1.00;0.65;;;19.30;99.90;;;;;;5032059;28;20014;-40
2023/07/29 06:53:10;;;;;;;1.50;0.80;;;19.30;99.90;;;;;;5032153;28;20045;-41
2023/07/29 06:55:35;;;;;;;2.38;0.85;;;19.30;99.90;;;;;;5032145;28;20061;-40
2023/07/29 06:58:01;;;;;;;1.83;0.90;;;19.30;99.90;;;;;;5032086;28;20029;-41
2023/07/29 07:00:27;;;;;;;1.30;0.73;;;19.30;99.90;;;;;;5031708;28;20025;-41
2023/07/29 07:02:53;;;;;;;1.10;0.70;;;19.30;99.90;;;;;;5032084;28;20092;-41
2023/07/29 07:05:18;;;;;;;1.42;0.80;;;19.30;99.90;;;;;;5031988;28;20096;-41
2023/07/29 07:07:44;;;;;;;1.27;0.80;;;19.30;99.90;;;;;;5031279;28;20393;-40
2023/07/29 07:10:10;;;;;;;0.90;0.73;;;19.30;99.90;;;;;;5032087;28;20029;-41
2023/07/29 07:12:35;;;;;;;1.35;0.70;;;19.30;99.90;;;;;;5031907;28;20034;-42
2023/07/29 07:15:01;;;;;;;2.28;0.80;;;19.30;99.90;;;;;;5031887;28;20044;-39
2023/07/29 07:17:27;;;;;;;1.00;0.70;;;19.30;99.90;;;;;;5031794;28;20039;-41
2023/07/29 07:19:52;;;;;;;1.45;0.60;;;19.30;99.90;;;;;;5031392;28;20047;-41
2023/07/29 07:22:18;;;;;;;0.75;0.65;;;19.30;99.90;;;;;;5032318;28;20036;-43
2023/07/29 07:24:44;;;;;;;0.90;0.68;;;19.30;99.90;;;;;;5031580;28;20481;-40
2023/07/29 07:27:10;;;;;;;1.33;0.90;;;19.30;99.90;;;;;;5031619;28;20116;-41
2023/07/29 07:29:36;;;;;;;1.15;0.70;;;19.30;99.90;;;;;;5031255;28;20104;-41
2023/07/29 07:32:02;;;;;;;0.82;0.68;;;19.30;99.90;;;;;;5031566;28;20021;-42
2023/07/29 07:34:27;;;;;;;1.60;0.85;;;19.30;99.90;;;;;;5031542;28;20564;-42
2023/07/29 07:36:53;;;;;;;0.70;0.50;;;19.30;99.90;;;;;;5031485;28;20063;-40
2023/07/29 07:39:19;;;;;;;0.82;0.70;;;19.30;99.90;;;;;;5030867;28;20037;-41
2023/07/29 07:41:44;;;;;;;0.70;0.60;;;19.30;99.90;;;;;;5031405;28;20151;-42
2023/07/29 07:44:12;;;;;;;1.40;0.80;;;19.30;99.90;;;;;;5031331;28;20026;-39
2023/07/29 07:46:38;;;;;;;0.77;0.70;;;19.30;99.90;;;;;;5031705;28;20022;-39
2023/07/29 07:49:04;;;;;;;0.70;0.60;;;19.30;99.90;;;;;;5030979;28;20500;-42
2023/07/29 07:51:29;;;;;;;1.23;0.73;;;19.30;99.90;;;;;;5031266;28;20095;-43
2023/07/29 07:53:55;;;;;;;1.10;0.80;;;19.30;99.90;;;;;;5031133;28;20029;-41
2023/07/29 07:56:21;;;;;;;1.08;0.68;;;19.30;99.90;;;;;;5031234;28;20025;-41
2023/07/29 07:58:46;;;;;;;0.60;0.60;;;19.30;99.90;;;;;;5030960;28;20039;-40
2023/07/29 08:01:12;;;;;;;1.52;0.60;;;19.30;99.90;;;;;;5031127;28;20018;-46
2023/07/29 08:03:37;;;;;;;0.90;0.60;;;19.30;99.90;;;;;;5031171;28;20029;-44
2023/07/29 08:06:04;;;;;;;0.70;0.60;;;19.30;99.90;;;;;;5031188;28;20021;-41
2023/07/29 08:08:29;;;;;;;0.95;0.70;;;19.30;99.90;;;;;;5030942;28;20032;-40
2023/07/29 08:10:57;;;;;;;0.80;0.60;;;19.30;99.90;;;;;;5030979;28;20034;-42
2023/07/29 08:13:24;;;;;;;0.80;0.57;;;19.30;99.90;;;;;;5031019;28;20048;-41
2023/07/29 08:15:50;;;;;;;0.93;0.57;;;19.30;99.90;;;;;;5031062;28;20029;-44
2023/07/29 08:18:16;;;;;;;1.92;0.70;;;19.30;99.90;;;;;;5032766;28;20508;-43
2023/07/29 08:20:55;;;;;;;0.95;0.73;;;19.30;99.90;;;;;;5034855;28;20022;-39
2023/07/29 08:23:21;;;;;;;2.22;0.70;;;19.40;99.90;;;;;;5035303;28;20033;-39
2023/07/29 08:25:56;;;;;;;0.85;0.70;;;19.30;99.90;;;;;;5035062;28;20025;-42
2023/07/29 08:28:22;;;;;;;0.68;0.57;;;19.30;99.90;;;;;;5034965;28;20109;-42
2023/07/29 08:30:48;;;;;;;1.52;0.63;;;19.30;99.90;;;;;;5034763;28;20019;-41
2023/07/29 08:33:14;;;;;;;1.42;0.80;;;19.30;99.90;;;;;;5034899;28;20440;-43
2023/07/29 08:35:40;;;;;;;1.42;0.70;;;19.30;99.90;;;;;;5034814;28;20093;-43
2023/07/29 08:38:06;;;;;;;0.82;0.60;;;19.30;99.90;;;;;;5034686;28;20576;-42
2023/07/29 08:40:34;;;;;;;1.15;0.80;;;19.30;99.90;;;;;;5034445;28;20511;-42
2023/07/29 08:43:04;;;;;;;0.73;0.60;;;19.30;99.90;;;;;;5034508;28;20080;-41
2023/07/29 08:45:34;;;;;;;1.83;0.60;;;19.30;99.90;;;;;;5034667;28;20033;-41
2023/07/29 08:48:06;;;;;;;0.68;0.50;;;19.40;99.90;;;;;;5034393;28;20032;-41
2023/07/29 08:50:34;;;;;;;0.77;0.60;;;19.30;99.90;;;;;;5034369;28;20116;-43
2023/07/29 08:53:03;;;;;;;0.82;0.60;;;19.40;99.90;;;;;;5034529;28;20473;-43
2023/07/29 08:55:29;;;;;;;1.23;0.70;;;19.30;99.90;;;;;;5034401;28;20057;-42
2023/07/29 08:57:55;;;;;;;0.75;0.60;;;19.30;99.90;;;;;;5034352;28;20044;-41
2023/07/29 09:00:21;;;;;;;2.50;0.80;;;19.40;99.90;;;;;;5033983;28;20031;-40
2023/07/29 09:02:47;;;;;;;0.93;0.50;;;19.40;99.90;;;;;;5034584;28;20460;-39
2023/07/29 09:05:13;;;;;;;1.33;0.40;;;19.40;99.90;;;;;;5034338;28;20028;-43
2023/07/29 09:07:40;;;;;;;1.27;0.60;;;19.40;99.90;;;;;;5034123;28;20601;-40
2023/07/29 09:10:09;;;;;;;0.75;0.60;;;19.40;99.90;;;;;;5034012;28;20030;-41
2023/07/29 09:12:34;;;;;;;0.52;0.47;;;19.40;99.90;;;;;;5034062;28;20039;-42
2023/07/29 09:15:00;;;;;;;1.25;0.70;;;19.40;99.90;;;;;;5034497;28;20025;-39
2023/07/29 09:17:26;;;;;;;1.42;0.70;;;19.40;99.90;;;;;;5034081;28;20029;-41
2023/07/29 09:19:51;;;;;;;0.70;0.60;;;19.40;99.90;;;;;;5015735;28;20033;-40
2023/07/29 09:22:20;;;;;;;2.00;0.50;;;19.40;99.90;;;;;;5033970;28;20075;-42
2023/07/29 09:24:47;;;;;;;1.00;0.60;;;19.40;99.90;;;;;;5033922;28;20025;-40
2023/07/29 09:27:24;;;;;;;0.85;0.70;;;19.40;99.90;;;;;;5033847;28;20026;-41
2023/07/29 09:29:49;;;;;;;0.95;0.50;;;19.40;99.90;;;;;;5032838;28;20505;-41
2023/07/29 09:32:20;;;;;;;0.55;0.50;;;19.40;99.90;;;;;;5033828;28;20049;-42
2023/07/29 09:34:46;;;;;;;1.25;0.68;;;19.40;99.90;;;;;;5033703;28;20108;-42
2023/07/29 09:37:16;;;;;;;0.85;0.50;;;19.40;99.90;;;;;;5033714;28;20021;-41
2023/07/29 09:39:45;;;;;;;0.82;0.60;;;19.40;99.90;;;;;;5033364;28;20059;-40
2023/07/29 09:42:21;;;;;;;0.80;0.60;;;19.40;99.90;;;;;;5033479;28;20030;-39
2023/07/29 09:44:49;;;;;;;1.40;0.57;;;19.40;99.90;;;;;;5033650;28;20024;-39
2023/07/29 09:47:29;;;;;;;1.08;0.70;;;19.40;99.90;;;;;;5033558;28;20287;-40
2023/07/29 09:49:55;;;;;;;0.80;0.63;;;19.40;99.90;;;;;;5033331;28;20026;-39
2023/07/29 09:52:23;;;;;;;0.82;0.60;;;19.40;99.90;;;;;;5033487;28;20060;-41
2023/07/29 09:54:49;;;;;;;0.93;0.60;;;19.40;99.90;;;;;;5033347;28;20018;-42
2023/07/29 09:57:16;;;;;;;0.68;0.60;;;19.40;99.90;;;;;;5033371;28;20029;-42
2023/07/29 09:59:42;;;;;;;0.80;0.70;;;19.50;99.90;;;;;;5033060;28;20044;-40
2023/07/29 10:02:15;;;;;;;0.70;0.60;;;19.50;99.90;;;;;;5033295;28;20477;-39
2023/07/29 10:04:46;;;;;;;0.85;0.70;;;19.40;99.90;;;;;;5033267;28;20099;-40
2023/07/29 10:07:12;;;;;;;3.42;0.80;;;19.50;99.90;;;;;;5033002;28;20399;-39
2023/07/29 10:09:39;;;;;;;1.30;0.70;;;19.50;99.90;;;;;;5032736;28;20121;-39
2023/07/29 10:12:06;;;;;;;0.93;0.57;;;19.50;99.90;;;;;;5033387;28;20034;-41
2023/07/29 10:14:33;;;;;;;1.13;0.70;;;19.50;99.90;;;;;;5033437;28;20029;-44
2023/07/29 10:17:00;;;;;;;1.05;0.70;;;19.50;99.90;;;;;;5032980;28;20036;-43
2023/07/29 10:19:26;;;;;;;0.90;0.60;;;19.50;99.90;;;;;;5032424;28;20033;-42
2023/07/29 10:21:54;;;;;;;0.95;0.68;;;19.50;99.90;;;;;;5033191;28;20025;-43
2023/07/29 10:24:28;;;;;;;0.95;0.60;;;19.50;99.90;;;;;;5032783;28;20021;-42
2023/07/29 10:26:56;;;;;;;;;;;19.50;99.90;;;;;;5033283;28;20049;-43
2023/07/29 10:29:23;;;;;;;0.98;0.70;;;19.50;99.90;;;;;;5032377;28;20273;-40
2023/07/29 10:31:53;;;;;;;0.80;0.70;;;19.50;99.90;;;;;;5032663;28;20060;-40
2023/07/29 10:34:20;;;;;;;1.00;0.80;;;19.60;99.90;;;;;;5032409;28;20029;-39
2023/07/29 10:36:48;;;;;;;1.00;0.60;;;19.60;99.90;;;;;;5032739;28;20056;-42
2023/07/29 10:39:13;;;;;;;0.90;0.70;;;19.60;99.90;;;;;;5014366;28;20032;-39
2023/07/29 10:42:02;;;;;;;1.35;0.90;;;19.60;99.90;;;;;;5031783;28;20021;-41
2023/07/29 10:44:40;;;;;;;1.23;0.90;;;19.60;99.90;;;;;;5032325;28;20025;-41
2023/07/29 10:47:17;;;;;;;0.70;0.65;;;19.60;99.90;;;;;;5032406;28;20492;-42
2023/07/29 10:49:45;;;;;;;0.82;0.68;;;19.60;99.90;;;;;;5032247;28;20037;-42
2023/07/29 10:52:28;;;;;;;1.00;0.90;;;19.60;99.90;;;;;;5032701;28;20053;-41
2023/07/29 10:54:53;;;;;;;0.80;0.70;;;19.60;99.90;;;;;;5032216;28;20037;-41
2023/07/29 10:57:33;;;;;;;0.95;0.80;;;19.60;99.90;;;;;;5032132;28;20083;-41
2023/07/29 10:59:59;;;;;;;2.00;1.00;;;19.60;99.90;;;;;;5013982;28;20116;-42
2023/07/29 11:02:34;;;;;;;0.80;0.80;;;19.60;99.90;;;;;;5032096;28;20600;-40
2023/07/29 11:05:17;;;;;;;1.52;0.68;;;19.60;99.90;;;;;;5032503;28;20025;-41
2023/07/29 11:07:47;;;;;;;1.15;1.00;;;19.70;99.90;;;;;;5031917;28;20025;-39
2023/07/29 11:10:14;;;;;;;1.40;0.90;;;19.60;99.90;;;;;;5032032;28;20091;-39
2023/07/29 11:12:42;;;;;;;0.70;0.70;;;19.60;99.90;;;;;;5031956;28;20032;-41
2023/07/29 11:15:11;;;;;;;1.10;0.73;;;19.70;99.90;;;;;;5031884;28;20021;-41
2023/07/29 11:17:40;;;;;;;1.73;0.90;;;19.60;99.90;;;;;;5031764;28;20022;-41
2023/07/29 11:20:09;;;;;;;1.90;0.80;;;19.70;99.90;;;;;;5031357;28;20120;-42
2023/07/29 11:22:36;;;;;;;0.90;0.70;;;19.70;99.90;;;;;;5031718;28;20309;-41
2023/07/29 11:25:02;;;;;;;1.52;1.00;;;19.70;99.90;;;;;;5031668;28;20029;-41
2023/07/29 11:27:28;;;;;;;1.38;0.80;;;19.70;99.90;;;;;;5013936;28;20029;-41
2023/07/29 11:30:01;;;;;;;1.70;0.90;;;19.70;99.90;;;;;;5031375;28;20037;-40
2023/07/29 11:32:27;;;;;;;1.17;1.00;;;19.70;99.90;;;;;;5031463;28;20029;-42
2023/07/29 11:34:53;;;;;;;2.85;0.98;;;19.70;99.90;;;;;;5031660;28;20264;-41
2023/07/29 11:37:20;;;;;;;1.58;1.23;;;19.80;99.90;;;;;;5031479;28;20489;-41
2023/07/29 11:39:46;;;;;;;4.93;1.20;;;19.80;99.90;;;;;;5031045;28;20041;-42
2023/07/29 11:42:13;;;;;;;1.05;0.75;;;19.80;99.90;;;;;;5031538;28;20097;-40
2023/07/29 11:44:39;;;;;;;1.00;0.90;;;19.80;99.90;;;;;;5031393;28;20024;-41
2023/07/29 11:47:08;;;;;;;1.60;1.02;;;19.80;99.90;;;;;;5031288;28;20026;-42
2023/07/29 11:49:35;;;;;;;1.02;0.80;;;19.80;99.90;;;;;;5031040;28;20097;-40
2023/07/29 11:52:02;;;;;;;1.20;0.85;;;19.80;99.90;;;;;;5031205;28;20029;-41
2023/07/29 11:54:28;;;;;;;1.30;1.02;;;19.80;99.90;;;;;;5031429;28;20040;-41
2023/07/29 11:56:53;;;;;;;1.10;0.90;;;19.80;99.90;;;;;;5031190;28;20104;-41
2023/07/29 11:59:19;;;;;;;1.20;0.90;;;19.80;99.90;;;;;;5030871;28;20029;-41
2023/07/29 12:01:45;;;;;;;1.05;0.93;;;19.80;99.90;;;;;;5031106;28;20018;-41
2023/07/29 12:04:12;;;;;;;1.30;1.17;;;19.80;99.90;;;;;;5031212;28;20022;-44
2023/07/29 12:06:38;;;;;;;0.95;0.82;;;19.80;99.90;;;;;;5031148;28;20045;-42
2023/07/29 12:09:04;;;;;;;1.70;1.10;;;19.90;99.90;;;;;;5030844;28;20032;-41
2023/07/29 12:11:30;;;;;;;1.00;0.90;;;19.90;99.90;;;;;;5031170;28;20025;-41
2023/07/29 12:13:56;;;;;;;1.20;1.10;;;19.80;99.90;;;;;;5031076;28;20149;-43
2023/07/29 12:16:21;;;;;;;1.50;1.02;;;19.90;99.90;;;;;;5031415;28;20061;-42
2023/07/29 12:18:50;;;;;;;1.00;0.70;;;19.90;99.90;;;;;;5031046;28;20027;-40
2023/07/29 12:21:17;;;;;;;1.33;1.00;;;19.90;99.90;;;;;;5031523;28;20397;-39
2023/07/29 12:23:43;;;;;;;0.95;0.80;;;19.90;99.90;;;;;;5030979;28;20037;-41
2023/07/29 12:26:08;;;;;;;1.55;1.25;;;19.90;99.90;;;;;;5030974;28;20025;-44
2023/07/29 12:28:34;;;;;;;1.42;1.00;;;19.90;99.90;;;;;;5030911;28;20032;-41
2023/07/29 12:30:59;;;;;;;1.33;1.20;;;19.90;99.90;;;;;;5013215;28;20032;-41
2023/07/29 12:33:33;;;;;;;1.60;1.10;;;19.90;99.90;;;;;;5031061;28;20034;-41
2023/07/29 12:35:59;;;;;;;1.30;0.95;;;19.90;99.90;;;;;;5030940;28;20017;-41
2023/07/29 12:38:31;;;;;;;2.95;1.00;;;20.00;99.90;;;;;;5030637;28;20515;-44
2023/07/29 12:40:56;;;;;;;1.40;1.00;;;19.90;99.90;;;;;;5030650;28;20028;-42
2023/07/29 12:43:22;;;;;;;1.52;1.10;;;19.90;99.90;;;;;;5030598;28;20014;-41
2023/07/29 12:45:51;;;;;;;1.38;1.17;;;19.90;99.90;;;;;;5030976;28;20144;-39
2023/07/29 12:48:18;;;;;;;2.35;1.10;;;19.90;99.90;;;;;;5031077;28;20021;-42